sensor_id;sensor_type;location;lat;lon;timestamp;pressure;altitude;pressure_sealevel;temperature;humidity
36222;BME280;22266;52.340;4.962;2023-11-21T00:01:02;101028.88;;;9.57;93.68
36222;BME280;22266;52.340;4.962;2023-11-21T00:03:30;101036.94;;;9.57;93.77
36222;BME280;22266;52.340;4.962;2023-11-21T00:05:57;101035.06;;;9.57;93.91
36222;BME280;22266;52.340;4.962;2023-11-21T00:08:23;101032.19;;;9.59;94.09
36222;BME280;22266;52.340;4.962;2023-11-21T00:10:50;101038.88;;;9.63;93.82
36222;BME280;22266;52.340;4.962;2023-11-21T00:13:17;101037.84;;;9.64;94.36
36222;BME280;22266;52.340;4.962;2023-11-21T00:15:44;101040.38;;;9.65;93.91
36222;BME280;22266;52.340;4.962;2023-11-21T00:18:10;101036.66;;;9.66;93.92
36222;BME280;22266;52.340;4.962;2023-11-21T00:20:37;101037.69;;;9.65;93.91
36222;BME280;22266;52.340;4.962;2023-11-21T00:23:03;101040.16;;;9.67;94.09
36222;BME280;22266;52.340;4.962;2023-11-21T00:25:30;101045.53;;;9.67;94.06
36222;BME280;22266;52.340;4.962;2023-11-21T00:27:58;101045.53;;;9.67;94.09
36222;BME280;22266;52.340;4.962;2023-11-21T00:30:24;101044.72;;;9.66;94.32
36222;BME280;22266;52.340;4.962;2023-11-21T00:32:51;101051.59;;;9.69;94.10
36222;BME280;22266;52.340;4.962;2023-11-21T00:35:18;101046.00;;;9.71;94.21
36222;BME280;22266;52.340;4.962;2023-11-21T00:37:45;101044.16;;;9.71;94.09
36222;BME280;22266;52.340;4.962;2023-11-21T00:40:12;101046.84;;;9.71;94.10
36222;BME280;22266;52.340;4.962;2023-11-21T00:42:39;101050.38;;;9.72;94.41
36222;BME280;22266;52.340;4.962;2023-11-21T00:45:06;101051.38;;;9.71;94.52
36222;BME280;22266;52.340;4.962;2023-11-21T00:47:33;101052.88;;;9.73;94.63
36222;BME280;22266;52.340;4.962;2023-11-21T00:50:00;101050.84;;;9.75;94.60
36222;BME280;22266;52.340;4.962;2023-11-21T00:52:27;101058.91;;;9.75;94.76
36222;BME280;22266;52.340;4.962;2023-11-21T00:54:54;101055.38;;;9.75;94.71
36222;BME280;22266;52.340;4.962;2023-11-21T00:57:21;101056.22;;;9.75;94.25
36222;BME280;22266;52.340;4.962;2023-11-21T00:59:47;101056.22;;;9.75;94.50
36222;BME280;22266;52.340;4.962;2023-11-21T01:02:14;101062.41;;;9.76;94.64
36222;BME280;22266;52.340;4.962;2023-11-21T01:04:40;101065.94;;;9.76;94.40
36222;BME280;22266;52.340;4.962;2023-11-21T01:07:07;101065.78;;;9.78;94.64
36222;BME280;22266;52.340;4.962;2023-11-21T01:09:34;101068.28;;;9.79;94.54
36222;BME280;22266;52.340;4.962;2023-11-21T01:12:01;101074.66;;;9.78;94.56
36222;BME280;22266;52.340;4.962;2023-11-21T01:14:28;101069.50;;;9.77;94.75
36222;BME280;22266;52.340;4.962;2023-11-21T01:16:56;101077.34;;;9.78;94.50
36222;BME280;22266;52.340;4.962;2023-11-21T01:19:24;101080.03;;;9.78;94.54
36222;BME280;22266;52.340;4.962;2023-11-21T01:21:50;101082.94;;;9.77;94.68
36222;BME280;22266;52.340;4.962;2023-11-21T01:24:18;101085.44;;;9.78;94.28
36222;BME280;22266;52.340;4.962;2023-11-21T01:26:44;101092.66;;;9.78;94.62
36222;BME280;22266;52.340;4.962;2023-11-21T01:29:13;101094.50;;;9.77;94.55
36222;BME280;22266;52.340;4.962;2023-11-21T01:31:41;101089.13;;;9.77;94.40
36222;BME280;22266;52.340;4.962;2023-11-21T01:34:07;101101.56;;;9.78;94.69
36222;BME280;22266;52.340;4.962;2023-11-21T01:36:34;101104.25;;;9.78;94.81
36222;BME280;22266;52.340;4.962;2023-11-21T01:39:02;101116.03;;;9.77;94.66
36222;BME280;22266;52.340;4.962;2023-11-21T01:41:34;101108.78;;;9.78;94.73
36222;BME280;22266;52.340;4.962;2023-11-21T01:44:01;101107.97;;;9.77;94.69
36222;BME280;22266;52.340;4.962;2023-11-21T01:46:28;101110.66;;;9.77;94.71
36222;BME280;22266;52.340;4.962;2023-11-21T01:48:55;101112.31;;;9.78;94.87
36222;BME280;22266;52.340;4.962;2023-11-21T01:51:22;101117.69;;;9.78;95.05
36222;BME280;22266;52.340;4.962;2023-11-21T01:53:49;101119.53;;;9.78;94.80
36222;BME280;22266;52.340;4.962;2023-11-21T01:56:16;101124.09;;;9.77;94.87
36222;BME280;22266;52.340;4.962;2023-11-21T01:58:43;101115.00;;;9.78;95.14
36222;BME280;22266;52.340;4.962;2023-11-21T02:01:10;101119.34;;;9.79;94.85
36222;BME280;22266;52.340;4.962;2023-11-21T02:03:37;101119.34;;;9.79;94.89
36222;BME280;22266;52.340;4.962;2023-11-21T02:06:03;101124.72;;;9.79;95.05
36222;BME280;22266;52.340;4.962;2023-11-21T02:08:30;101119.34;;;9.79;95.07
36222;BME280;22266;52.340;4.962;2023-11-21T02:10:57;101127.25;;;9.81;95.11
36222;BME280;22266;52.340;4.962;2023-11-21T02:13:24;101134.50;;;9.80;94.80
36222;BME280;22266;52.340;4.962;2023-11-21T02:15:50;101134.28;;;9.82;94.77
36222;BME280;22266;52.340;4.962;2023-11-21T02:18:18;101127.25;;;9.81;95.04
36222;BME280;22266;52.340;4.962;2023-11-21T02:20:45;101132.78;;;9.79;95.18
36222;BME280;22266;52.340;4.962;2023-11-21T02:23:13;101136.31;;;9.80;95.16
36222;BME280;22266;52.340;4.962;2023-11-21T02:25:39;101146.22;;;9.79;94.83
36222;BME280;22266;52.340;4.962;2023-11-21T02:28:06;101142.72;;;9.79;94.79
36222;BME280;22266;52.340;4.962;2023-11-21T02:30:33;101144.56;;;9.78;95.36
36222;BME280;22266;52.340;4.962;2023-11-21T02:33:01;101148.28;;;9.77;94.77
36222;BME280;22266;52.340;4.962;2023-11-21T02:35:28;101153.66;;;9.77;95.12
36222;BME280;22266;52.340;4.962;2023-11-21T02:37:57;101144.94;;;9.75;94.97
36222;BME280;22266;52.340;4.962;2023-11-21T02:40:24;101151.97;;;9.76;95.14
36222;BME280;22266;52.340;4.962;2023-11-21T02:42:54;101150.13;;;9.77;95.12
36222;BME280;22266;52.340;4.962;2023-11-21T02:45:21;101149.28;;;9.76;95.28
36222;BME280;22266;52.340;4.962;2023-11-21T02:47:49;101150.13;;;9.77;95.24
36222;BME280;22266;52.340;4.962;2023-11-21T02:50:16;101134.84;;;9.77;95.56
36222;BME280;22266;52.340;4.962;2023-11-21T02:52:45;101148.28;;;9.77;95.60
36222;BME280;22266;52.340;4.962;2023-11-21T02:55:13;101148.28;;;9.77;95.30
36222;BME280;22266;52.340;4.962;2023-11-21T02:57:40;101150.97;;;9.77;95.43
36222;BME280;22266;52.340;4.962;2023-11-21T03:00:07;101143.91;;;9.76;95.39
36222;BME280;22266;52.340;4.962;2023-11-21T03:02:34;101148.28;;;9.77;95.45
36222;BME280;22266;52.340;4.962;2023-11-21T03:05:07;101148.28;;;9.77;95.31
36222;BME280;22266;52.340;4.962;2023-11-21T03:07:37;101150.78;;;9.79;95.35
36222;BME280;22266;52.340;4.962;2023-11-21T03:10:03;101151.44;;;9.81;95.52
36222;BME280;22266;52.340;4.962;2023-11-21T03:12:30;101157.81;;;9.80;95.79
36222;BME280;22266;52.340;4.962;2023-11-21T03:14:57;101162.22;;;9.81;95.39
36222;BME280;22266;52.340;4.962;2023-11-21T03:17:23;101163.03;;;9.81;95.40
36222;BME280;22266;52.340;4.962;2023-11-21T03:19:50;101165.72;;;9.81;95.86
36222;BME280;22266;52.340;4.962;2023-11-21T03:22:18;101164.50;;;9.84;95.57
36222;BME280;22266;52.340;4.962;2023-11-21T03:24:45;101167.88;;;9.86;95.56
36222;BME280;22266;52.340;4.962;2023-11-21T03:27:12;101170.38;;;9.87;95.76
36222;BME280;22266;52.340;4.962;2023-11-21T03:29:38;101173.72;;;9.89;95.64
36222;BME280;22266;52.340;4.962;2023-11-21T03:32:05;101175.38;;;9.90;95.49
36222;BME280;22266;52.340;4.962;2023-11-21T03:34:33;101176.41;;;9.89;95.53
36222;BME280;22266;52.340;4.962;2023-11-21T03:37:00;101177.25;;;9.90;95.38
36222;BME280;22266;52.340;4.962;2023-11-21T03:39:26;101176.41;;;9.89;95.70
36222;BME280;22266;52.340;4.962;2023-11-21T03:41:53;101190.69;;;9.90;95.26
36222;BME280;22266;52.340;4.962;2023-11-21T03:44:19;101180.13;;;9.88;95.45
36222;BME280;22266;52.340;4.962;2023-11-21T03:46:45;101185.50;;;9.88;95.57
36222;BME280;22266;52.340;4.962;2023-11-21T03:49:12;101186.50;;;9.87;95.53
36222;BME280;22266;52.340;4.962;2023-11-21T03:51:40;101193.38;;;9.90;95.54
36222;BME280;22266;52.340;4.962;2023-11-21T03:54:07;101203.94;;;9.91;95.64
36222;BME280;22266;52.340;4.962;2023-11-21T03:56:33;101200.41;;;9.91;95.57
36222;BME280;22266;52.340;4.962;2023-11-21T03:59:00;101200.06;;;9.94;96.06
36222;BME280;22266;52.340;4.962;2023-11-21T04:01:26;101203.59;;;9.95;95.96
36222;BME280;22266;52.340;4.962;2023-11-21T04:03:53;101207.09;;;9.95;95.60
36222;BME280;22266;52.340;4.962;2023-11-21T04:06:19;101208.97;;;9.95;95.64
36222;BME280;22266;52.340;4.962;2023-11-21T04:08:46;101214.16;;;9.96;95.57
36222;BME280;22266;52.340;4.962;2023-11-21T04:11:12;101219.72;;;9.95;96.11
36222;BME280;22266;52.340;4.962;2023-11-21T04:13:40;101226.59;;;9.97;95.92
36222;BME280;22266;52.340;4.962;2023-11-21T04:16:07;101227.25;;;9.99;96.08
36222;BME280;22266;52.340;4.962;2023-11-21T04:18:38;101223.72;;;9.99;95.64
36222;BME280;22266;52.340;4.962;2023-11-21T04:21:06;101220.19;;;9.98;95.75
36222;BME280;22266;52.340;4.962;2023-11-21T04:23:33;101231.16;;;9.97;95.82
36222;BME280;22266;52.340;4.962;2023-11-21T04:26:00;101247.09;;;9.98;96.21
36222;BME280;22266;52.340;4.962;2023-11-21T04:28:28;101244.41;;;9.98;96.13
36222;BME280;22266;52.340;4.962;2023-11-21T04:30:54;101244.41;;;9.98;95.76
36222;BME280;22266;52.340;4.962;2023-11-21T04:33:21;101247.94;;;9.99;96.21
36222;BME280;22266;52.340;4.962;2023-11-21T04:35:48;101246.25;;;9.98;96.22
36222;BME280;22266;52.340;4.962;2023-11-21T04:38:15;101246.91;;;10.00;95.87
36222;BME280;22266;52.340;4.962;2023-11-21T04:40:41;101246.06;;;9.99;95.80
36222;BME280;22266;52.340;4.962;2023-11-21T04:43:08;101254.97;;;10.00;96.13
36222;BME280;22266;52.340;4.962;2023-11-21T04:45:34;101254.97;;;10.00;96.13
36222;BME280;22266;52.340;4.962;2023-11-21T04:48:01;101258.31;;;10.02;96.14
36222;BME280;22266;52.340;4.962;2023-11-21T04:50:28;101257.50;;;10.01;96.18
36222;BME280;22266;52.340;4.962;2023-11-21T04:52:54;101260.81;;;10.03;96.25
36222;BME280;22266;52.340;4.962;2023-11-21T04:55:21;101263.50;;;10.03;96.42
36222;BME280;22266;52.340;4.962;2023-11-21T04:57:47;101274.13;;;10.05;96.52
36222;BME280;22266;52.340;4.962;2023-11-21T05:00:14;101283.66;;;10.07;96.52
36222;BME280;22266;52.340;4.962;2023-11-21T05:02:42;101278.28;;;10.07;96.40
36222;BME280;22266;52.340;4.962;2023-11-21T05:05:10;101275.59;;;10.07;96.34
36222;BME280;22266;52.340;4.962;2023-11-21T05:07:37;101285.31;;;10.08;96.25
36222;BME280;22266;52.340;4.962;2023-11-21T05:10:05;101285.31;;;10.08;96.34
36222;BME280;22266;52.340;4.962;2023-11-21T05:12:35;101288.69;;;10.10;96.31
36222;BME280;22266;52.340;4.962;2023-11-21T05:15:04;101295.72;;;10.11;96.39
36222;BME280;22266;52.340;4.962;2023-11-21T05:17:34;101285.16;;;10.10;96.55
36222;BME280;22266;52.340;4.962;2023-11-21T05:20:01;101293.88;;;10.12;96.77
36222;BME280;22266;52.340;4.962;2023-11-21T05:22:30;101290.81;;;10.15;96.84
36222;BME280;22266;52.340;4.962;2023-11-21T05:24:56;101293.50;;;10.15;96.54
36222;BME280;22266;52.340;4.962;2023-11-21T05:27:23;101295.03;;;10.18;97.01
36222;BME280;22266;52.340;4.962;2023-11-21T05:29:49;101308.28;;;10.19;96.89
36222;BME280;22266;52.340;4.962;2023-11-21T05:32:16;101307.94;;;10.22;97.04
36222;BME280;22266;52.340;4.962;2023-11-21T05:34:43;101308.94;;;10.21;96.94
36222;BME280;22266;52.340;4.962;2023-11-21T05:37:10;101315.69;;;10.25;97.47
36222;BME280;22266;52.340;4.962;2023-11-21T05:39:36;101316.63;;;10.24;97.38
36222;BME280;22266;52.340;4.962;2023-11-21T05:42:03;101322.72;;;10.26;97.50
36222;BME280;22266;52.340;4.962;2023-11-21T05:44:30;101325.41;;;10.26;97.26
36222;BME280;22266;52.340;4.962;2023-11-21T05:46:56;101329.13;;;10.25;97.61
36222;BME280;22266;52.340;4.962;2023-11-21T05:49:25;101328.78;;;10.20;97.44
36222;BME280;22266;52.340;4.962;2023-11-21T05:51:56;101335.84;;;10.21;98.14
36222;BME280;22266;52.340;4.962;2023-11-21T05:54:25;101339.06;;;10.16;97.94
36222;BME280;22266;52.340;4.962;2023-11-21T05:56:52;101341.94;;;10.15;98.36
36222;BME280;22266;52.340;4.962;2023-11-21T05:59:18;101347.81;;;10.19;98.92
36222;BME280;22266;52.340;4.962;2023-11-21T06:01:49;101352.69;;;10.15;98.44
36222;BME280;22266;52.340;4.962;2023-11-21T06:04:15;101343.44;;;10.18;99.00
36222;BME280;22266;52.340;4.962;2023-11-21T06:06:42;101362.44;;;10.16;98.94
36222;BME280;22266;52.340;4.962;2023-11-21T06:09:08;101359.59;;;10.18;98.91
36222;BME280;22266;52.340;4.962;2023-11-21T06:11:35;101359.75;;;10.16;99.39
36222;BME280;22266;52.340;4.962;2023-11-21T06:14:02;101367.81;;;10.16;99.39
36222;BME280;22266;52.340;4.962;2023-11-21T06:16:28;101373.56;;;10.13;99.78
36222;BME280;22266;52.340;4.962;2023-11-21T06:18:55;101374.22;;;10.15;99.48
36222;BME280;22266;52.340;4.962;2023-11-21T06:21:22;101368.00;;;10.14;99.96
36222;BME280;22266;52.340;4.962;2023-11-21T06:23:48;101367.19;;;10.14;99.97
36222;BME280;22266;52.340;4.962;2023-11-21T06:26:19;101371.25;;;10.10;100.00
36222;BME280;22266;52.340;4.962;2023-11-21T06:28:46;101372.59;;;10.06;100.00
36222;BME280;22266;52.340;4.962;2023-11-21T06:31:13;101380.84;;;10.04;100.00
36222;BME280;22266;52.340;4.962;2023-11-21T06:33:40;101388.91;;;10.04;100.00
36222;BME280;22266;52.340;4.962;2023-11-21T06:36:07;101388.25;;;10.02;100.00
36222;BME280;22266;52.340;4.962;2023-11-21T06:38:34;101391.25;;;10.07;100.00
36222;BME280;22266;52.340;4.962;2023-11-21T06:41:01;101389.88;;;10.11;100.00
36222;BME280;22266;52.340;4.962;2023-11-21T06:43:30;101401.66;;;10.10;100.00
36222;BME280;22266;52.340;4.962;2023-11-21T06:45:57;101399.16;;;10.09;100.00
36222;BME280;22266;52.340;4.962;2023-11-21T06:48:25;101394.44;;;10.11;100.00
36222;BME280;22266;52.340;4.962;2023-11-21T06:50:52;101404.00;;;10.13;100.00
36222;BME280;22266;52.340;4.962;2023-11-21T06:53:18;101403.81;;;10.15;100.00
36222;BME280;22266;52.340;4.962;2023-11-21T06:55:45;101414.56;;;10.15;100.00
36222;BME280;22266;52.340;4.962;2023-11-21T06:58:12;101419.47;;;10.11;100.00
36222;BME280;22266;52.340;4.962;2023-11-21T07:00:40;101423.00;;;10.12;100.00
36222;BME280;22266;52.340;4.962;2023-11-21T07:03:07;101429.06;;;10.14;100.00
36222;BME280;22266;52.340;4.962;2023-11-21T07:05:34;101432.38;;;10.16;100.00
36222;BME280;22266;52.340;4.962;2023-11-21T07:08:00;101429.88;;;10.14;100.00
36222;BME280;22266;52.340;4.962;2023-11-21T07:10:30;101441.47;;;10.15;100.00
36222;BME280;22266;52.340;4.962;2023-11-21T07:12:57;101440.66;;;10.14;100.00
36222;BME280;22266;52.340;4.962;2023-11-21T07:15:24;101441.66;;;10.13;100.00
36222;BME280;22266;52.340;4.962;2023-11-21T07:17:52;101447.69;;;10.15;100.00
36222;BME280;22266;52.340;4.962;2023-11-21T07:20:20;101449.34;;;10.16;100.00
36222;BME280;22266;52.340;4.962;2023-11-21T07:22:47;101452.91;;;10.17;100.00
36222;BME280;22266;52.340;4.962;2023-11-21T07:25:14;101452.91;;;10.17;100.00
36222;BME280;22266;52.340;4.962;2023-11-21T07:27:41;101462.81;;;10.16;100.00
36222;BME280;22266;52.340;4.962;2023-11-21T07:30:08;101466.22;;;10.10;100.00
36222;BME280;22266;52.340;4.962;2023-11-21T07:32:36;101468.06;;;10.10;100.00
36222;BME280;22266;52.340;4.962;2023-11-21T07:35:07;101478.66;;;10.11;100.00
36222;BME280;22266;52.340;4.962;2023-11-21T07:37:34;101485.53;;;10.14;100.00
36222;BME280;22266;52.340;4.962;2023-11-21T07:40:00;101485.19;;;10.17;100.00
36222;BME280;22266;52.340;4.962;2023-11-21T07:42:27;101492.41;;;10.16;100.00
36222;BME280;22266;52.340;4.962;2023-11-21T07:44:53;101499.66;;;10.16;100.00
36222;BME280;22266;52.340;4.962;2023-11-21T07:47:20;101505.22;;;10.14;100.00
36222;BME280;22266;52.340;4.962;2023-11-21T07:49:47;101503.19;;;10.08;100.00
36222;BME280;22266;52.340;4.962;2023-11-21T07:52:13;101505.41;;;10.13;100.00
36222;BME280;22266;52.340;4.962;2023-11-21T07:54:42;101515.97;;;10.14;100.00
36222;BME280;22266;52.340;4.962;2023-11-21T07:57:09;101519.69;;;10.13;100.00
36222;BME280;22266;52.340;4.962;2023-11-21T07:59:40;101519.31;;;10.16;100.00
36222;BME280;22266;52.340;4.962;2023-11-21T08:02:07;101528.91;;;10.19;100.00
36222;BME280;22266;52.340;4.962;2023-11-21T08:04:34;101527.22;;;10.18;100.00
36222;BME280;22266;52.340;4.962;2023-11-21T08:07:01;101537.31;;;10.16;100.00
36222;BME280;22266;52.340;4.962;2023-11-21T08:09:30;101541.03;;;10.15;100.00
36222;BME280;22266;52.340;4.962;2023-11-21T08:11:57;101548.75;;;10.18;100.00
36222;BME280;22266;52.340;4.962;2023-11-21T08:14:23;101552.28;;;10.19;100.00
36222;BME280;22266;52.340;4.962;2023-11-21T08:16:51;101553.78;;;10.21;100.00
36222;BME280;22266;52.340;4.962;2023-11-21T08:19:18;101566.22;;;10.22;100.00
36222;BME280;22266;52.340;4.962;2023-11-21T08:21:45;101564.56;;;10.21;100.00
36222;BME280;22266;52.340;4.962;2023-11-21T08:24:12;101571.94;;;10.19;100.00
36222;BME280;22266;52.340;4.962;2023-11-21T08:26:38;101580.84;;;10.20;100.00
36222;BME280;22266;52.340;4.962;2023-11-21T08:29:05;101576.31;;;10.20;100.00
36222;BME280;22266;52.340;4.962;2023-11-21T08:31:33;101578.00;;;10.21;100.00
36222;BME280;22266;52.340;4.962;2023-11-21T08:34:00;101583.19;;;10.23;100.00
36222;BME280;22266;52.340;4.962;2023-11-21T08:36:29;101597.19;;;10.18;100.00
36222;BME280;22266;52.340;4.962;2023-11-21T08:38:57;101591.47;;;10.21;100.00
36222;BME280;22266;52.340;4.962;2023-11-21T08:41:24;101601.72;;;10.18;100.00
36222;BME280;22266;52.340;4.962;2023-11-21T08:43:51;101605.06;;;10.20;100.00
36222;BME280;22266;52.340;4.962;2023-11-21T08:46:18;101592.94;;;10.24;100.00
36222;BME280;22266;52.340;4.962;2023-11-21T08:48:46;101607.22;;;10.24;100.00
36222;BME280;22266;52.340;4.962;2023-11-21T08:51:12;101609.28;;;10.22;100.00
36222;BME280;22266;52.340;4.962;2023-11-21T08:53:40;101609.59;;;10.19;100.00
36222;BME280;22266;52.340;4.962;2023-11-21T08:56:07;101622.22;;;10.19;100.00
36222;BME280;22266;52.340;4.962;2023-11-21T08:58:35;101622.88;;;10.21;100.00
36222;BME280;22266;52.340;4.962;2023-11-21T09:01:04;101618.84;;;10.16;100.00
36222;BME280;22266;52.340;4.962;2023-11-21T09:03:31;101624.94;;;10.10;100.00
36222;BME280;22266;52.340;4.962;2023-11-21T09:06:00;101639.25;;;10.03;100.00
36222;BME280;22266;52.340;4.962;2023-11-21T09:08:27;101637.72;;;10.00;100.00
36222;BME280;22266;52.340;4.962;2023-11-21T09:10:55;101640.09;;;9.95;100.00
36222;BME280;22266;52.340;4.962;2023-11-21T09:13:22;101645.13;;;9.98;100.00
36222;BME280;22266;52.340;4.962;2023-11-21T09:15:51;101651.34;;;9.99;100.00
36222;BME280;22266;52.340;4.962;2023-11-21T09:18:18;101655.06;;;9.98;100.00
36222;BME280;22266;52.340;4.962;2023-11-21T09:20:45;101667.66;;;9.97;100.00
36222;BME280;22266;52.340;4.962;2023-11-21T09:23:12;101663.66;;;9.93;100.00
36222;BME280;22266;52.340;4.962;2023-11-21T09:25:38;101672.38;;;9.95;100.00
36222;BME280;22266;52.340;4.962;2023-11-21T09:28:05;101675.06;;;9.95;100.00
36222;BME280;22266;52.340;4.962;2023-11-21T09:30:35;101681.78;;;9.91;100.00
36222;BME280;22266;52.340;4.962;2023-11-21T09:33:04;101680.28;;;9.97;100.00
36222;BME280;22266;52.340;4.962;2023-11-21T09:35:33;101695.91;;;9.93;100.00
36222;BME280;22266;52.340;4.962;2023-11-21T09:38:00;101700.09;;;9.96;100.00
36222;BME280;22266;52.340;4.962;2023-11-21T09:40:28;101701.94;;;9.95;100.00
36222;BME280;22266;52.340;4.962;2023-11-21T09:42:58;101710.72;;;9.97;100.00
36222;BME280;22266;52.340;4.962;2023-11-21T09:45:26;101718.59;;;9.99;100.00
36222;BME280;22266;52.340;4.962;2023-11-21T09:47:57;101722.63;;;9.95;100.00
36222;BME280;22266;52.340;4.962;2023-11-21T09:50:24;101718.59;;;9.90;100.00
36222;BME280;22266;52.340;4.962;2023-11-21T09:52:57;101720.13;;;9.93;100.00
36222;BME280;22266;52.340;4.962;2023-11-21T09:55:27;101722.44;;;9.96;100.00
36222;BME280;22266;52.340;4.962;2023-11-21T09:57:58;101730.69;;;9.95;100.00
36222;BME280;22266;52.340;4.962;2023-11-21T10:00:25;101736.41;;;9.91;100.00
36222;BME280;22266;52.340;4.962;2023-11-21T10:02:54;101745.16;;;9.94;100.00
36222;BME280;22266;52.340;4.962;2023-11-21T10:05:21;101749.19;;;9.98;100.00
36222;BME280;22266;52.340;4.962;2023-11-21T10:07:53;101750.22;;;9.97;100.00
36222;BME280;22266;52.340;4.962;2023-11-21T10:10:24;101757.59;;;9.95;100.00
36222;BME280;22266;52.340;4.962;2023-11-21T10:12:55;101764.31;;;9.99;100.00
36222;BME280;22266;52.340;4.962;2023-11-21T10:15:23;101769.03;;;10.05;100.00
36222;BME280;22266;52.340;4.962;2023-11-21T10:17:53;101772.72;;;10.04;100.00
36222;BME280;22266;52.340;4.962;2023-11-21T10:20:23;101774.25;;;9.98;100.00
36222;BME280;22266;52.340;4.962;2023-11-21T10:22:50;101782.50;;;9.97;100.00
36222;BME280;22266;52.340;4.962;2023-11-21T10:25:17;101791.91;;;9.93;100.00
36222;BME280;22266;52.340;4.962;2023-11-21T10:27:48;101781.16;;;9.93;100.00
36222;BME280;22266;52.340;4.962;2023-11-21T10:30:16;101789.03;;;9.94;100.00
36222;BME280;22266;52.340;4.962;2023-11-21T10:32:44;101791.22;;;9.99;100.00
36222;BME280;22266;52.340;4.962;2023-11-21T10:35:11;101805.34;;;10.01;100.00
36222;BME280;22266;52.340;4.962;2023-11-21T10:37:38;101797.75;;;9.96;100.00
36222;BME280;22266;52.340;4.962;2023-11-21T10:40:10;101807.53;;;9.97;100.00
36222;BME280;22266;52.340;4.962;2023-11-21T10:42:40;101805.69;;;10.06;100.00
36222;BME280;22266;52.340;4.962;2023-11-21T10:45:08;101803.50;;;10.09;100.00
36222;BME280;22266;52.340;4.962;2023-11-21T10:47:42;101810.75;;;10.09;100.00
36222;BME280;22266;52.340;4.962;2023-11-21T10:50:09;101811.72;;;10.08;100.00
36222;BME280;22266;52.340;4.962;2023-11-21T10:52:40;101817.78;;;10.10;100.00
36222;BME280;22266;52.340;4.962;2023-11-21T10:55:19;101819.66;;;10.09;100.00
36222;BME280;22266;52.340;4.962;2023-11-21T10:57:49;101821.31;;;10.10;100.00
36222;BME280;22266;52.340;4.962;2023-11-21T11:00:17;101821.84;;;10.06;100.00
36222;BME280;22266;52.340;4.962;2023-11-21T11:02:54;101829.38;;;10.02;100.00
36222;BME280;22266;52.340;4.962;2023-11-21T11:05:26;101830.56;;;10.00;100.00
36222;BME280;22266;52.340;4.962;2023-11-21T11:08:00;101839.81;;;9.97;100.00
36222;BME280;22266;52.340;4.962;2023-11-21T11:10:29;101828.69;;;9.92;100.00
36222;BME280;22266;52.340;4.962;2023-11-21T11:12:56;101841.16;;;9.93;100.00
36222;BME280;22266;52.340;4.962;2023-11-21T11:15:28;101845.00;;;9.99;100.00
36222;BME280;22266;52.340;4.962;2023-11-21T11:17:55;101850.41;;;9.99;100.00
36222;BME280;22266;52.340;4.962;2023-11-21T11:20:34;101852.44;;;9.97;100.00
36222;BME280;22266;52.340;4.962;2023-11-21T11:26:04;101849.53;;;9.90;100.00
36222;BME280;22266;52.340;4.962;2023-11-21T11:32:06;101859.81;;;9.95;100.00
36222;BME280;22266;52.340;4.962;2023-11-21T11:34:42;101858.44;;;9.90;100.00
36222;BME280;22266;52.340;4.962;2023-11-21T11:37:11;101865.19;;;9.95;100.00
36222;BME280;22266;52.340;4.962;2023-11-21T11:39:41;101857.94;;;9.95;100.00
36222;BME280;22266;52.340;4.962;2023-11-21T11:42:11;101857.94;;;9.95;100.00
36222;BME280;22266;52.340;4.962;2023-11-21T11:47:16;101859.13;;;9.84;100.00
36222;BME280;22266;52.340;4.962;2023-11-21T11:50:14;101866.19;;;9.85;100.00
36222;BME280;22266;52.340;4.962;2023-11-21T11:52:45;101865.63;;;9.74;99.68
36222;BME280;22266;52.340;4.962;2023-11-21T11:55:13;101871.03;;;9.82;100.00
36222;BME280;22266;52.340;4.962;2023-11-21T11:57:41;101875.09;;;9.86;100.00
36222;BME280;22266;52.340;4.962;2023-11-21T12:00:12;101880.63;;;9.84;99.79
36222;BME280;22266;52.340;4.962;2023-11-21T12:02:45;101885.31;;;9.82;99.67
36222;BME280;22266;52.340;4.962;2023-11-21T12:05:17;101877.91;;;9.76;99.65
36222;BME280;22266;52.340;4.962;2023-11-21T12:10:17;101892.34;;;9.75;99.66
36222;BME280;22266;52.340;4.962;2023-11-21T12:12:46;101896.19;;;9.64;99.50
36222;BME280;22266;52.340;4.962;2023-11-21T12:15:13;101894.53;;;9.72;100.00
36222;BME280;22266;52.340;4.962;2023-11-21T12:17:41;101897.69;;;9.67;99.13
36222;BME280;22266;52.340;4.962;2023-11-21T12:20:09;101891.47;;;9.66;99.33
36222;BME280;22266;52.340;4.962;2023-11-21T12:22:43;101914.19;;;9.72;99.83
36222;BME280;22266;52.340;4.962;2023-11-21T12:25:10;101908.66;;;9.74;100.00
36222;BME280;22266;52.340;4.962;2023-11-21T12:27:43;101900.63;;;9.82;100.00
36222;BME280;22266;52.340;4.962;2023-11-21T12:30:11;101900.13;;;9.86;99.80
36222;BME280;22266;52.340;4.962;2023-11-21T12:32:40;101911.69;;;9.79;98.55
36222;BME280;22266;52.340;4.962;2023-11-21T12:35:11;101913.03;;;9.75;99.17
36222;BME280;22266;52.340;4.962;2023-11-21T12:37:39;101921.94;;;9.75;99.12
36222;BME280;22266;52.340;4.962;2023-11-21T12:40:06;101919.94;;;9.77;98.91
36222;BME280;22266;52.340;4.962;2023-11-21T12:42:34;101932.03;;;9.73;98.77
36222;BME280;22266;52.340;4.962;2023-11-21T12:47:43;101929.34;;;9.73;98.46
36222;BME280;22266;52.340;4.962;2023-11-21T12:50:09;101944.25;;;9.68;98.23
36222;BME280;22266;52.340;4.962;2023-11-21T12:52:45;101951.47;;;9.67;98.60
36222;BME280;22266;52.340;4.962;2023-11-21T12:55:21;101952.69;;;9.73;98.91
36222;BME280;22266;52.340;4.962;2023-11-21T12:57:55;101946.78;;;9.69;98.87
36222;BME280;22266;52.340;4.962;2023-11-21T13:00:33;101953.84;;;9.70;98.36
36222;BME280;22266;52.340;4.962;2023-11-21T13:03:01;101959.06;;;9.72;98.30
36222;BME280;22266;52.340;4.962;2023-11-21T13:05:29;101967.28;;;9.70;98.09
36222;BME280;22266;52.340;4.962;2023-11-21T13:07:57;101970.97;;;9.69;98.13
36222;BME280;22266;52.340;4.962;2023-11-21T13:10:26;101977.19;;;9.70;98.02